createdAt,value
2018-11-21T00:02:42.558Z,9.90
2018-11-21T00:06:53.790Z,8.43
2018-11-21T00:11:04.870Z,8.97
2018-11-21T00:15:16.083Z,10.30
2018-11-21T00:19:27.273Z,9.03
2018-11-21T00:23:38.213Z,9.30
2018-11-21T00:27:50.338Z,9.70
2018-11-21T00:32:01.320Z,10.03
2018-11-21T00:36:12.268Z,9.33
2018-11-21T00:40:23.317Z,9.73
2018-11-21T00:44:34.499Z,8.90
2018-11-21T00:48:45.519Z,8.37
2018-11-21T00:52:56.442Z,8.67
2018-11-21T00:57:07.888Z,8.00
2018-11-21T01:01:18.977Z,8.40
2018-11-21T01:05:29.901Z,8.77
2018-11-21T01:09:41.027Z,8.87
2018-11-21T01:13:52.150Z,7.57
2018-11-21T01:18:05.060Z,7.73
2018-11-21T01:22:16.327Z,6.10
2018-11-21T01:26:27.424Z,6.73
2018-11-21T01:30:39.534Z,7.13
2018-11-21T01:34:50.515Z,7.73
2018-11-21T01:39:02.516Z,7.67
2018-11-21T01:43:13.351Z,10.30
2018-11-21T01:47:24.313Z,11.27
2018-11-21T01:51:35.121Z,9.50
2018-11-21T01:55:45.992Z,10.27
2018-11-21T01:59:57.320Z,11.73
2018-11-21T02:04:08.402Z,10.90
2018-11-21T02:08:19.528Z,9.63
2018-11-21T02:12:30.332Z,11.33
2018-11-21T02:16:42.338Z,11.33
2018-11-21T02:20:53.324Z,11.07
2018-11-21T02:25:04.646Z,10.37
2018-11-21T02:29:16.955Z,11.63
2018-11-21T02:33:27.957Z,9.57
2018-11-21T02:37:39.030Z,9.63
2018-11-21T02:41:50.070Z,9.63
2018-11-21T02:46:01.225Z,11.10
2018-11-21T02:50:12.347Z,9.70
2018-11-21T02:54:23.384Z,10.57
2018-11-21T02:58:35.480Z,9.57
2018-11-21T03:02:46.459Z,10.30
2018-11-21T03:06:57.475Z,8.80
2018-11-21T03:11:08.541Z,6.73
2018-11-21T03:15:19.620Z,7.70
2018-11-21T03:19:30.813Z,6.37
2018-11-21T03:23:41.952Z,8.17
2018-11-21T03:27:52.904Z,8.07
2018-11-21T03:32:04.143Z,7.00
2018-11-21T03:36:16.347Z,7.53
2018-11-21T03:40:27.348Z,8.80
2018-11-21T03:44:38.338Z,8.67
2018-11-21T03:48:49.314Z,13.20
2018-11-21T03:53:00.312Z,14.80
2018-11-21T03:57:11.573Z,12.27
2018-11-21T04:01:22.604Z,12.87
2018-11-21T04:05:33.542Z,9.00
2018-11-21T04:09:44.844Z,10.67
2018-11-21T04:13:56.069Z,12.50
2018-11-21T04:18:07.504Z,12.60
2018-11-21T04:22:18.354Z,11.37
2018-11-21T04:26:29.636Z,11.60
2018-11-21T04:30:40.763Z,12.67
2018-11-21T04:34:51.745Z,14.90
2018-11-21T04:39:04.572Z,15.20
2018-11-21T04:43:15.764Z,12.93
2018-11-21T04:47:26.853Z,13.17
2018-11-21T04:51:37.829Z,14.83
2018-11-21T04:55:48.933Z,14.53
2018-11-21T05:00:00.291Z,14.60
2018-11-21T05:04:11.185Z,14.67
2018-11-21T05:08:23.188Z,13.23
2018-11-21T05:12:34.593Z,13.33
2018-11-21T05:16:45.858Z,15.63
2018-11-21T05:20:56.950Z,14.93
2018-11-21T05:25:08.669Z,14.40
2018-11-21T05:29:19.811Z,13.27
2018-11-21T05:33:30.726Z,16.73
2018-11-21T05:37:41.654Z,18.57
2018-11-21T05:41:52.524Z,20.30
2018-11-21T05:46:03.860Z,20.77
2018-11-21T05:50:14.908Z,20.33
2018-11-21T05:54:25.940Z,17.47
2018-11-21T05:58:37.060Z,19.30
2018-11-21T06:02:48.010Z,15.97
2018-11-21T06:06:59.176Z,18.13
2018-11-21T06:11:10.658Z,15.63
2018-11-21T06:15:22.218Z,16.13
2018-11-21T06:19:33.336Z,19.43
2018-11-21T06:23:44.096Z,17.47
2018-11-21T06:27:55.420Z,15.73
2018-11-21T06:32:07.799Z,13.47
2018-11-21T06:36:18.830Z,12.47
2018-11-21T06:40:29.810Z,12.07
2018-11-21T06:44:40.746Z,15.93
2018-11-21T06:48:52.009Z,15.53
2018-11-21T06:53:03.065Z,14.37
2018-11-21T06:57:14.152Z,18.03
2018-11-21T07:01:25.078Z,15.80
2018-11-21T07:05:36.037Z,17.90
2018-11-21T07:09:46.941Z,18.97
2018-11-21T07:13:58.120Z,15.23
2018-11-21T07:18:10.425Z,13.03
2018-11-21T07:22:21.565Z,13.13
2018-11-21T07:26:33.672Z,14.57
2018-11-21T07:30:45.777Z,15.20
2018-11-21T07:34:57.214Z,16.47
2018-11-21T07:39:10.189Z,16.40
2018-11-21T07:43:21.085Z,13.00
2018-11-21T07:47:32.060Z,12.90
2018-11-21T07:51:43.356Z,15.07
2018-11-21T07:55:55.467Z,19.03
2018-11-21T08:01:02.421Z,17.27
2018-11-21T08:05:18.676Z,17.77
2018-11-21T08:10:00.605Z,17.43
2018-11-21T08:14:42.923Z,20.53
2018-11-21T08:19:10.308Z,22.27
2018-11-21T08:23:38.631Z,24.97
2018-11-21T08:28:07.067Z,26.90
2018-11-21T08:32:17.967Z,23.87
2018-11-21T08:36:29.156Z,29.87
2018-11-21T08:40:41.401Z,30.70
2018-11-21T08:44:52.405Z,35.67
2018-11-21T08:49:03.485Z,33.23
2018-11-21T08:53:14.416Z,34.13
2018-11-21T08:57:25.693Z,36.53
2018-11-21T09:01:36.791Z,32.87
2018-11-21T09:05:47.899Z,33.93
2018-11-21T09:09:58.844Z,31.87
2018-11-21T09:14:09.917Z,32.97
2018-11-21T09:18:21.109Z,32.53
2018-11-21T09:22:33.957Z,30.13
2018-11-21T09:26:44.959Z,30.03
2018-11-21T09:30:56.052Z,27.87
2018-11-21T09:35:08.300Z,29.77
2018-11-21T09:39:19.432Z,28.03
2018-11-21T09:43:30.308Z,28.53
2018-11-21T09:47:41.515Z,30.87
2018-11-21T09:51:52.517Z,29.00
2018-11-21T09:56:03.600Z,32.77
2018-11-21T10:00:51.525Z,29.90
2018-11-21T10:05:02.428Z,29.83
2018-11-21T10:09:16.200Z,28.90
2018-11-21T10:13:27.419Z,28.73
2018-11-21T10:17:38.445Z,30.27
2018-11-21T10:21:49.534Z,32.50
2018-11-21T10:26:01.482Z,30.03
2018-11-21T10:30:12.606Z,34.83
2018-11-21T10:34:23.628Z,29.30
2018-11-21T10:38:34.612Z,29.27
2018-11-21T10:42:45.572Z,29.73
2018-11-21T10:46:56.560Z,29.30
2018-11-21T10:51:08.085Z,33.40
2018-11-21T10:55:22.319Z,29.03
2018-11-21T10:59:33.237Z,27.63
2018-11-21T11:05:08.559Z,26.53
2018-11-21T11:09:38.800Z,26.73
2018-11-21T11:14:22.358Z,20.50
2018-11-21T11:19:00.669Z,18.87
2018-11-21T11:23:27.595Z,5.80
2018-11-21T11:27:57.654Z,2.20
2018-11-21T11:32:41.095Z,2.37
2018-11-21T11:37:11.021Z,2.20
2018-11-21T11:41:41.664Z,3.13
2018-11-21T11:46:19.066Z,2.07
2018-11-21T11:51:05.375Z,2.43
2018-11-21T11:55:42.776Z,2.83
2018-11-21T12:00:17.002Z,3.20
2018-11-21T12:04:48.257Z,1.93
2018-11-21T12:09:19.721Z,2.37
2018-11-21T12:13:51.285Z,2.00
2018-11-21T12:18:28.607Z,3.20
2018-11-21T12:23:06.303Z,2.63
2018-11-21T12:27:37.657Z,2.70
2018-11-21T12:32:18.329Z,4.00
2018-11-21T12:36:55.151Z,14.50
2018-11-21T12:41:35.280Z,5.73
2018-11-21T12:45:56.754Z,2.40
2018-11-21T12:50:32.470Z,3.30
2018-11-21T12:55:03.731Z,2.17
2018-11-21T12:59:37.956Z,8.03
2018-11-21T13:04:08.392Z,6.57
2018-11-21T13:08:39.958Z,7.43
2018-11-21T13:13:08.874Z,13.43
2018-11-21T13:17:40.425Z,14.03
2018-11-21T13:22:11.780Z,18.37
2018-11-21T13:26:42.117Z,13.73
2018-11-21T13:31:12.248Z,5.33
2018-11-21T13:35:42.288Z,3.70
2018-11-21T13:40:13.328Z,9.50
2018-11-21T13:44:49.781Z,6.67
2018-11-21T13:49:20.449Z,8.27
2018-11-21T13:53:51.604Z,4.37
2018-11-21T13:58:04.665Z,11.83
2018-11-21T14:02:17.851Z,17.37
2018-11-21T14:06:30.815Z,7.70
2018-11-21T14:10:43.760Z,17.30
2018-11-21T14:14:56.483Z,7.17
2018-11-21T14:19:09.604Z,7.97
2018-11-21T14:23:22.755Z,6.23
2018-11-21T14:27:35.545Z,6.33
2018-11-21T14:31:49.080Z,6.70
2018-11-21T14:36:02.518Z,7.50
2018-11-21T14:40:17.844Z,5.70
2018-11-21T14:44:30.849Z,9.80
2018-11-21T14:48:45.087Z,5.73
2018-11-21T14:52:58.290Z,5.00
2018-11-21T14:57:11.329Z,6.90
2018-11-21T15:01:24.083Z,7.53
2018-11-21T15:05:37.092Z,6.17
2018-11-21T15:09:49.961Z,8.73
2018-11-21T15:14:02.994Z,9.40
2018-11-21T15:18:16.842Z,7.90
2018-11-21T15:22:30.030Z,8.03
2018-11-21T15:26:44.089Z,7.87
2018-11-21T15:30:57.122Z,6.20
2018-11-21T15:35:09.904Z,7.63
2018-11-21T15:39:22.923Z,7.27
2018-11-21T15:43:35.620Z,7.57
2018-11-21T15:47:51.461Z,7.53
2018-11-21T15:52:04.236Z,8.57
2018-11-21T15:56:17.394Z,7.50
2018-11-21T16:00:31.658Z,9.33
2018-11-21T16:04:48.087Z,8.63
2018-11-21T16:08:58.108Z,10.87
2018-11-21T16:13:10.964Z,13.07
2018-11-21T16:17:24.351Z,12.87
2018-11-21T16:21:37.411Z,13.53
2018-11-21T16:25:50.215Z,11.73
2018-11-21T16:30:03.240Z,11.97
2018-11-21T16:34:15.879Z,10.27
2018-11-21T16:38:28.966Z,10.97
2018-11-21T16:42:42.102Z,8.60
2018-11-21T16:46:56.094Z,8.87
2018-11-21T16:51:10.152Z,7.73
2018-11-21T16:55:24.390Z,9.00
2018-11-21T16:59:38.679Z,7.07
2018-11-21T17:03:54.886Z,7.17
2018-11-21T17:08:08.286Z,6.77
2018-11-21T17:12:22.567Z,9.27
2018-11-21T17:16:38.140Z,8.83
2018-11-21T17:20:55.683Z,10.60
2018-11-21T17:25:20.883Z,10.20
2018-11-21T17:29:59.456Z,11.27
2018-11-21T17:34:14.021Z,10.63
2018-11-21T17:38:51.173Z,10.50
2018-11-21T17:43:29.573Z,10.07
2018-11-21T17:47:48.682Z,13.00
2018-11-21T17:52:12.143Z,11.90
2018-11-21T17:56:38.747Z,14.23
2018-11-21T18:01:08.308Z,13.23
2018-11-21T18:05:44.385Z,14.40
2018-11-21T18:10:12.053Z,13.40
2018-11-21T18:14:31.574Z,16.13
2018-11-21T18:18:46.386Z,15.40
2018-11-21T18:23:00.228Z,15.23
2018-11-21T18:27:19.375Z,18.80
2018-11-21T18:31:34.255Z,18.07
2018-11-21T18:35:59.937Z,20.13
2018-11-21T18:40:24.704Z,17.93
2018-11-21T18:44:49.889Z,20.13
2018-11-21T18:49:09.531Z,20.87
2018-11-21T18:53:47.050Z,20.63
2018-11-21T18:58:49.578Z,23.93
2018-11-21T19:03:05.040Z,18.70
2018-11-21T19:07:27.563Z,22.40
2018-11-21T19:11:58.104Z,20.40
2018-11-21T19:16:21.604Z,18.67
2018-11-21T19:20:40.265Z,21.30
2018-11-21T19:25:09.557Z,20.70
2018-11-21T19:29:27.924Z,21.97
2018-11-21T19:33:42.092Z,21.47
2018-11-21T19:37:58.528Z,24.17
2018-11-21T19:42:25.164Z,25.67
2018-11-21T19:46:46.856Z,24.13
2018-11-21T19:51:14.326Z,24.93
2018-11-21T19:55:33.409Z,24.53
2018-11-21T20:00:11.617Z,25.87
2018-11-21T20:04:49.430Z,26.13
2018-11-21T20:09:11.596Z,25.80
2018-11-21T20:13:28.689Z,25.10
2018-11-21T20:18:07.287Z,30.80
2018-11-21T20:22:33.497Z,26.33
2018-11-21T20:27:00.598Z,29.30
2018-11-21T20:31:22.570Z,27.70
2018-11-21T20:35:59.814Z,26.13
2018-11-21T20:40:31.990Z,27.40
2018-11-21T20:45:00.860Z,27.90
2018-11-21T20:49:28.343Z,28.30
2018-11-21T20:53:54.296Z,29.50
2018-11-21T20:58:27.506Z,28.47
2018-11-21T21:02:48.328Z,27.33
2018-11-21T21:07:08.371Z,28.80
2018-11-21T21:11:42.703Z,30.93
2018-11-21T21:15:57.891Z,25.97
2018-11-21T21:20:21.231Z,25.10
2018-11-21T21:24:49.841Z,26.07
2018-11-21T21:29:17.552Z,28.13
2018-11-21T21:33:47.718Z,25.40
2018-11-21T21:38:09.119Z,28.90
2018-11-21T21:42:30.937Z,27.13
2018-11-21T21:46:49.021Z,25.63
2018-11-21T21:51:11.950Z,27.33
2018-11-21T21:55:27.085Z,28.43
2018-11-21T21:59:44.763Z,27.73
2018-11-21T22:04:04.262Z,29.27
2018-11-21T22:08:23.534Z,27.47
2018-11-21T22:12:37.567Z,23.63
2018-11-21T22:16:50.691Z,29.87
2018-11-21T22:21:03.501Z,28.93
2018-11-21T22:25:16.462Z,25.07
2018-11-21T22:29:29.616Z,28.23
2018-11-21T22:33:42.494Z,25.50
2018-11-21T22:37:56.322Z,26.30
2018-11-21T22:42:09.398Z,26.93
2018-11-21T22:46:22.470Z,28.50
2018-11-21T22:50:35.307Z,26.97
2018-11-21T22:54:48.273Z,30.93
2018-11-21T22:59:01.458Z,25.50
2018-11-21T23:03:15.339Z,25.97
2018-11-21T23:07:28.538Z,26.77
2018-11-21T23:11:41.387Z,26.47
2018-11-21T23:15:54.414Z,27.73
2018-11-21T23:20:08.263Z,30.23
2018-11-21T23:24:21.278Z,26.63
2018-11-21T23:28:34.060Z,29.00
2018-11-21T23:32:47.390Z,28.23
2018-11-21T23:37:00.470Z,31.67
2018-11-21T23:41:13.507Z,31.87
2018-11-21T23:45:26.496Z,30.23
2018-11-21T23:49:39.663Z,30.07
2018-11-21T23:53:52.437Z,31.57
2018-11-21T23:58:05.563Z,31.97
